Airport Name : Kapuskasing

Other Name : Kapuskasing

ICAO : CYYU

IATA : YYU

FAA :

Latitude : 49.413889

Longitude : -82.4675

Country : Canada

Local Date and Time : 15 Jul 2024 14:54

 

TAF (Terminal Aerodrome Forecast)

TAF CYYU 151341Z 1514/1602 33005KT P6SM FEW005 OVC015 BECMG 1514/1515 FEW030 FM151500 31008KT P6SM FEW030 BECMG 1520/1522 09005KT FM152300 09005KT P6SM BKN100 RMK NXT FCST BY 152000Z

 

METAR (METeorological Aerodrome Report)

CYYU 151800Z VRB02KT 12SM FEW042 SCT062 OVC260 23/15 A2973 RMK SC2SC2CI4 HZ SLP072 DENSITY ALT 2100FT

CYYU 151700Z CCA 00000KT 12SM FEW032 SCT046 SCT051 OVC260 23/17 A2975 RMK SC2SC1SC1CI4 HZ SLP077 DENSITY ALT 2000FT

CYYU 151600Z VRB03KT 15SM FEW024 SCT032 BKN260 21/16 A2977 RMK SC2SC2CI3 SLP084 DENSITY ALT 1900FT

CYYU 151500Z 19003KT 160V310 15SM FEW011 SCT031 BKN260 20/17 A2978 RMK SC1SC3CI3 SLP089 DENSITY ALT 1700FT